Time;durP1;ratioP1;P1;durP2;ratioP2;P2;SDS_P1;SDS_P2;PMS_P1;PMS_P2;Temp;Humidity;BMP_temperature;BMP_pressure;BME280_temperature;BME280_humidity;BME280_pressure;Samples;Min_cycle;Max_cycle;Signal;HPM_P1;HPM_P2
2023/08/30 00:00:09;;;;;;;0.00;0.00;;;;;;;;;;7385836;19;20165;-69
2023/08/30 00:02:38;;;;;;;0.00;0.00;;;;;;;;;;7385451;19;20232;-69
2023/08/30 00:05:09;;;;;;;0.00;0.00;;;;;;;;;;7386093;19;20187;-68
2023/08/30 00:07:40;;;;;;;0.00;0.00;;;;;;;;;;7383797;19;20824;-68
2023/08/30 00:10:10;;;;;;;0.00;0.00;;;;;;;;;;7387136;19;20151;-67
2023/08/30 00:12:39;;;;;;;0.00;0.00;;;;;;;;;;7384456;19;20145;-69
2023/08/30 00:15:09;;;;;;;0.00;0.00;;;;;;;;;;7385395;19;20156;-68
2023/08/30 00:17:38;;;;;;;0.00;0.00;;;;;;;;;;7384907;19;20141;-67
2023/08/30 00:20:09;;;;;;;0.00;0.00;;;;;;;;;;7379908;19;20148;-67
2023/08/30 00:22:40;;;;;;;0.00;0.00;;;;;;;;;;7382231;19;20180;-67
2023/08/30 00:25:10;;;;;;;0.00;0.00;;;;;;;;;;7386635;19;20148;-67
2023/08/30 00:27:39;;;;;;;0.00;0.00;;;;;;;;;;7385993;19;20141;-68
2023/08/30 00:30:09;;;;;;;0.00;0.00;;;;;;;;;;7387271;19;20132;-68
2023/08/30 00:32:38;;;;;;;0.00;0.00;;;;;;;;;;7381515;19;20188;-68
2023/08/30 00:35:07;;;;;;;0.00;0.00;;;;;;;;;;7383652;19;20177;-67
2023/08/30 00:37:37;;;;;;;0.00;0.00;;;;;;;;;;7385238;19;20250;-67
2023/08/30 00:40:09;;;;;;;0.00;0.00;;;;;;;;;;7386017;19;20161;-68
2023/08/30 00:42:40;;;;;;;0.00;0.00;;;;;;;;;;7381148;19;20184;-68
2023/08/30 00:45:10;;;;;;;0.00;0.00;;;;;;;;;;7386035;19;20155;-68
2023/08/30 00:47:39;;;;;;;0.00;0.00;;;;;;;;;;7382460;19;20152;-68
2023/08/30 00:50:09;;;;;;;0.00;0.00;;;;;;;;;;7386128;19;20152;-67
2023/08/30 00:52:38;;;;;;;0.00;0.00;;;;;;;;;;7381735;19;20180;-67
2023/08/30 00:55:10;;;;;;;0.00;0.00;;;;;;;;;;7385744;19;20144;-68
2023/08/30 00:57:40;;;;;;;0.00;0.00;;;;;;;;;;7384068;19;20152;-68
2023/08/30 01:00:09;;;;;;;0.00;0.00;;;;;;;;;;7385147;19;20136;-67
2023/08/30 01:02:39;;;;;;;0.00;0.00;;;;;;;;;;7383038;19;20168;-68
2023/08/30 01:05:09;;;;;;;0.00;0.00;;;;;;;;;;7384883;19;20152;-68
2023/08/30 01:07:38;;;;;;;0.00;0.00;;;;;;;;;;7382660;19;20157;-68
2023/08/30 01:10:11;;;;;;;0.00;0.00;;;;;;;;;;7383058;19;20145;-68
2023/08/30 01:12:42;;;;;;;0.00;0.00;;;;;;;;;;7382601;19;20153;-69
2023/08/30 01:15:13;;;;;;;0.00;0.00;;;;;;;;;;7383200;19;20208;-68
2023/08/30 01:17:44;;;;;;;0.00;0.00;;;;;;;;;;7384972;19;20165;-68
2023/08/30 01:20:14;;;;;;;0.00;0.00;;;;;;;;;;7385088;19;20131;-68
2023/08/30 01:22:47;;;;;;;0.00;0.00;;;;;;;;;;7382398;19;20171;-68
2023/08/30 01:25:23;;;;;;;0.00;0.00;;;;;;;;;;7384661;19;20133;-68
2023/08/30 01:27:55;;;;;;;0.00;0.00;;;;;;;;;;7381067;19;20231;-68
2023/08/30 01:30:26;;;;;;;0.00;0.00;;;;;;;;;;7382419;19;20157;-68
2023/08/30 01:32:56;;;;;;;0.00;0.00;;;;;;;;;;7379061;19;20192;-68
2023/08/30 01:35:30;;;;;;;0.00;0.00;;;;;;;;;;7382700;19;20163;-68
2023/08/30 01:37:59;;;;;;;0.00;0.00;;;;;;;;;;7384051;19;20192;-68
2023/08/30 01:40:31;;;;;;;0.00;0.00;;;;;;;;;;7383150;19;20153;-68
2023/08/30 01:43:04;;;;;;;0.00;0.00;;;;;;;;;;7382537;19;20149;-69
2023/08/30 01:45:34;;;;;;;0.00;0.00;;;;;;;;;;7385360;19;20140;-68
2023/08/30 01:48:03;;;;;;;0.00;0.00;;;;;;;;;;7383490;19;20205;-68
2023/08/30 01:50:32;;;;;;;0.00;0.00;;;;;;;;;;7382240;19;20149;-68
2023/08/30 01:53:02;;;;;;;0.00;0.00;;;;;;;;;;7381161;19;20188;-68
2023/08/30 01:55:33;;;;;;;0.00;0.00;;;;;;;;;;7383125;19;20136;-68
2023/08/30 01:58:05;;;;;;;0.00;0.00;;;;;;;;;;7382101;19;20144;-67
2023/08/30 02:00:34;;;;;;;0.00;0.00;;;;;;;;;;7382378;19;20182;-68
2023/08/30 02:03:10;;;;;;;0.00;0.00;;;;;;;;;;7381755;19;20152;-68
2023/08/30 02:05:40;;;;;;;0.00;0.00;;;;;;;;;;7382544;19;20160;-68
2023/08/30 02:08:13;;;;;;;0.00;0.00;;;;;;;;;;7382952;19;20137;-68
2023/08/30 02:10:44;;;;;;;0.00;0.00;;;;;;;;;;7382565;19;20156;-68
2023/08/30 02:13:17;;;;;;;0.00;0.00;;;;;;;;;;7380353;19;20225;-68
2023/08/30 02:15:46;;;;;;;0.00;0.00;;;;;;;;;;7383104;19;20195;-68
2023/08/30 02:18:15;;;;;;;0.00;0.00;;;;;;;;;;7383350;19;20151;-68
2023/08/30 02:20:44;;;;;;;0.00;0.00;;;;;;;;;;7380600;19;20159;-69
2023/08/30 02:23:13;;;;;;;0.00;0.00;;;;;;;;;;7379088;19;20175;-68
2023/08/30 02:25:42;;;;;;;0.00;0.00;;;;;;;;;;7381127;19;20153;-68
2023/08/30 02:28:11;;;;;;;0.00;0.00;;;;;;;;;;7377990;19;20180;-68
2023/08/30 02:30:45;;;;;;;0.00;0.00;;;;;;;;;;7380617;19;20166;-67
2023/08/30 02:33:14;;;;;;;0.00;0.00;;;;;;;;;;7379309;19;20239;-68
2023/08/30 02:35:43;;;;;;;0.00;0.00;;;;;;;;;;7381484;19;20164;-67
2023/08/30 02:38:12;;;;;;;0.00;0.00;;;;;;;;;;7380895;19;20149;-68
2023/08/30 02:40:41;;;;;;;0.00;0.00;;;;;;;;;;7382149;19;20160;-68
2023/08/30 02:43:10;;;;;;;0.00;0.00;;;;;;;;;;7385531;19;20187;-68
2023/08/30 02:45:39;;;;;;;0.00;0.00;;;;;;;;;;7390307;19;20162;-69
2023/08/30 02:48:11;;;;;;;0.00;0.00;;;;;;;;;;7389361;19;20164;-68
2023/08/30 02:50:40;;;;;;;0.00;0.00;;;;;;;;;;7388693;19;20148;-68
2023/08/30 02:53:09;;;;;;;0.00;0.00;;;;;;;;;;7385720;19;20180;-68
2023/08/30 02:55:38;;;;;;;0.00;0.00;;;;;;;;;;7388401;19;20173;-69
2023/08/30 02:58:07;;;;;;;0.00;0.00;;;;;;;;;;7390293;19;20141;-68
2023/08/30 03:00:36;;;;;;;0.00;0.00;;;;;;;;;;7387755;19;20160;-69
2023/08/30 03:03:05;;;;;;;0.00;0.00;;;;;;;;;;7384492;19;20188;-68
2023/08/30 03:05:37;;;;;;;0.00;0.00;;;;;;;;;;7388710;19;20137;-68
2023/08/30 03:08:07;;;;;;;0.00;0.00;;;15.10;99.90;;;;;;7384987;19;20152;-68
2023/08/30 03:10:36;;;;;;;0.00;0.00;;;15.00;99.90;;;;;;7386728;19;20156;-68
2023/08/30 03:13:06;;;;;;;0.00;0.00;;;;;;;;;;7384248;19;20184;-68
2023/08/30 03:15:35;;;;;;;0.00;0.00;;;;;;;;;;7388454;19;20197;-69
2023/08/30 03:18:08;;;;;;;0.00;0.00;;;;;;;;;;7385104;19;20204;-68
2023/08/30 03:20:39;;;;;;;0.00;0.00;;;;;;;;;;7387753;19;20144;-68
2023/08/30 03:23:09;;;;;;;0.00;0.00;;;;;;;;;;7384244;19;20184;-68
2023/08/30 03:25:38;;;;;;;0.00;0.00;;;;;;;;;;7388455;19;20145;-68
2023/08/30 03:28:08;;;;;;;0.00;0.00;;;;;;;;;;7384307;19;20152;-69
2023/08/30 03:30:37;;;;;;;0.00;0.00;;;;;;;;;;7387376;19;20174;-68
2023/08/30 03:33:07;;;;;;;0.00;0.00;;;;;;;;;;7383365;19;20183;-68
2023/08/30 03:35:39;;;;;;;0.00;0.00;;;;;;;;;;7387361;19;20149;-68
2023/08/30 03:38:08;;;;;;;0.00;0.00;;;;;;;;;;7386980;19;20152;-69
2023/08/30 03:40:39;;;;;;;0.00;0.00;;;;;;;;;;7386734;19;20153;-69
2023/08/30 03:43:08;;;;;;;0.00;0.00;;;;;;;;;;7384163;19;20193;-69
2023/08/30 03:45:38;;;;;;;0.00;0.00;;;;;;;;;;7387414;19;20152;-69
2023/08/30 03:48:07;;;;;;;0.00;0.00;;;;;;;;;;7385384;19;20149;-69
2023/08/30 03:50:39;;;;;;;0.00;0.00;;;;;;;;;;7386851;19;20647;-68
2023/08/30 03:53:09;;;;;;;0.00;0.00;;;;;;;;;;7383961;19;20247;-68
2023/08/30 03:55:38;;;;;;;0.00;0.00;;;;;;;;;;7388201;19;20546;-69
2023/08/30 03:58:07;;;;;;;0.00;0.00;;;;;;;;;;7387325;19;20153;-68
2023/08/30 04:00:39;;;;;;;0.00;0.00;;;14.50;99.90;;;;;;7387509;19;20167;-68
2023/08/30 04:03:10;;;;;;;0.00;0.00;;;14.50;99.90;;;;;;7384942;19;20176;-68
2023/08/30 04:05:42;;;;;;;0.00;0.00;;;14.40;99.90;;;;;;7386235;19;20165;-68
2023/08/30 04:08:11;;;;;;;0.00;0.00;;;14.40;99.90;;;;;;7384668;19;20149;-68
2023/08/30 04:10:42;;;;;;;0.00;0.00;;;14.40;99.90;;;;;;7384353;19;20184;-68
2023/08/30 04:13:11;;;;;;;0.00;0.00;;;14.30;99.90;;;;;;7382451;19;20169;-68
2023/08/30 04:15:41;;;;;;;0.00;0.00;;;14.20;99.90;;;;;;7385769;19;20156;-68
2023/08/30 04:18:11;;;;;;;0.00;0.00;;;14.30;99.90;;;;;;7385339;19;20165;-69
2023/08/30 04:20:46;;;;;;;0.00;0.00;;;14.20;99.90;;;;;;7385719;19;20155;-68
2023/08/30 04:23:15;;;;;;;0.00;0.00;;;14.30;99.90;;;;;;7383112;19;20187;-68
2023/08/30 04:25:44;;;;;;;0.00;0.00;;;14.50;99.90;;;;;;7385743;19;20149;-68
2023/08/30 04:28:13;;;;;;;0.00;0.00;;;14.20;99.90;;;;;;7384553;19;20149;-68
2023/08/30 04:30:42;;;;;;;0.00;0.00;;;14.20;99.90;;;;;;7384837;19;20653;-68
2023/08/30 04:33:11;;;;;;;0.00;0.00;;;;;;;;;;7383165;19;20321;-68
2023/08/30 04:35:44;;;;;;;0.00;0.00;;;;;;;;;;7387495;19;20156;-68
2023/08/30 04:38:14;;;;;;;0.00;0.00;;;;;;;;;;7385541;19;20176;-69
2023/08/30 04:40:44;;;;;;;0.00;0.00;;;;;;;;;;7384468;19;20176;-69
2023/08/30 04:43:16;;;;;;;0.00;0.00;;;;;;;;;;7382378;19;20180;-69
2023/08/30 04:45:45;;;;;;;0.00;0.00;;;;;;;;;;7384629;19;20180;-69
2023/08/30 04:48:14;;;;;;;0.00;0.00;;;;;;;;;;7385675;19;20144;-68
2023/08/30 04:50:48;;;;;;;0.00;0.00;;;;;;;;;;7384148;19;20147;-68
2023/08/30 04:53:17;;;;;;;0.00;0.00;;;;;;;;;;7382463;19;20239;-68
2023/08/30 04:55:46;;;;;;;0.00;0.00;;;;;;;;;;7387619;19;20148;-68
2023/08/30 04:58:16;;;;;;;0.00;0.00;;;;;;;;;;7384668;19;20157;-68
2023/08/30 05:00:45;;;;;;;0.00;0.00;;;;;;;;;;7383947;19;20153;-68
2023/08/30 05:03:14;;;;;;;0.00;0.00;;;;;;;;;;7380825;19;20252;-69
2023/08/30 05:05:43;;;;;;;0.00;0.00;;;;;;;;;;7386160;19;20136;-69
2023/08/30 05:08:15;;;;;;;0.00;0.00;;;;;;;;;;7383031;19;20148;-69
2023/08/30 05:10:46;;;;;;;0.00;0.00;;;;;;;;;;7385328;19;20149;-68
2023/08/30 05:13:15;;;;;;;0.00;0.00;;;;;;;;;;7381172;19;20172;-69
2023/08/30 05:15:45;;;;;;;0.00;0.00;;;;;;;;;;7384325;19;20153;-69
2023/08/30 05:18:14;;;;;;;0.00;0.00;;;;;;;;;;7383466;19;20232;-69
2023/08/30 05:20:43;;;;;;;0.00;0.00;;;;;;;;;;7383469;19;20148;-69
2023/08/30 05:23:16;;;;;;;0.00;0.00;;;;;;;;;;7380080;19;20584;-68
2023/08/30 05:25:46;;;;;;;0.00;0.00;;;;;;;;;;7386622;19;20140;-69
2023/08/30 05:28:16;;;;;;;0.00;0.00;;;;;;;;;;7381451;19;20173;-69
2023/08/30 05:30:46;;;;;;;0.10;0.10;;;;;;;;;;7383644;19;20185;-68
2023/08/30 05:33:39;;;;;;;0.00;0.00;;;;;;;;;;7380181;19;20186;-69
2023/08/30 05:36:30;;;;;;;0.00;0.00;;;;;;;;;;7383565;19;20638;-69
2023/08/30 05:39:29;;;;;;;0.00;0.00;;;;;;;;;;7382233;19;20140;-68
2023/08/30 05:41:59;;;;;;;0.00;0.00;;;;;;;;;;7382920;19;20180;-68
2023/08/30 05:44:28;;;;;;;0.00;0.00;;;;;;;;;;7386172;19;20136;-69
2023/08/30 05:46:58;;;;;;;0.00;0.00;;;;;;;;;;7383493;19;20152;-69
2023/08/30 05:49:27;;;;;;;0.00;0.00;;;;;;;;;;7381863;19;20179;-69
2023/08/30 05:51:56;;;;;;;0.10;0.10;;;;;;;;;;7381959;19;20192;-69
2023/08/30 05:54:29;;;;;;;0.00;0.00;;;;;;;;;;7382288;19;20226;-69
2023/08/30 05:57:01;;;;;;;0.00;0.00;;;;;;;;;;7382288;19;20156;-69
2023/08/30 05:59:30;;;;;;;0.00;0.00;;;;;;;;;;7382469;19;20165;-69
2023/08/30 06:01:59;;;;;;;0.00;0.00;;;;;;;;;;7383003;19;20165;-68
2023/08/30 06:04:28;;;;;;;0.00;0.00;;;;;;;;;;7382220;19;20161;-69
2023/08/30 06:06:57;;;;;;;0.00;0.00;;;;;;;;;;7380632;19;20727;-69
2023/08/30 06:09:26;;;;;;;0.00;0.00;;;;;;;;;;7381869;19;20137;-69
2023/08/30 06:11:55;;;;;;;0.00;0.00;;;;;;;;;;7382811;19;20149;-69
2023/08/30 06:14:27;;;;;;;0.00;0.00;;;;;;;;;;7381746;19;20156;-69
2023/08/30 06:16:56;;;;;;;0.00;0.00;;;;;;;;;;7391587;19;20133;-69
2023/08/30 06:19:25;;;;;;;0.00;0.00;;;;;;;;;;7391269;19;20125;-69
2023/08/30 06:21:55;;;;;;;0.00;0.00;;;;;;;;;;7389979;19;20183;-69
2023/08/30 06:24:25;;;;;;;0.00;0.00;;;;;;;;;;7390537;19;20151;-68
2023/08/30 06:26:54;;;;;;;0.00;0.00;;;;;;;;;;7392331;19;20216;-69
2023/08/30 06:29:23;;;;;;;0.00;0.00;;;;;;;;;;7387187;19;20696;-69
2023/08/30 06:31:55;;;;;;;0.00;0.00;;;;;;;;;;7387646;19;20512;-69
2023/08/30 06:34:24;;;;;;;0.00;0.00;;;;;;;;;;7387618;19;20161;-69
2023/08/30 06:36:53;;;;;;;0.00;0.00;;;;;;;;;;7388358;19;20163;-69
2023/08/30 06:39:22;;;;;;;0.00;0.00;;;14.20;99.90;;;;;;7389914;19;20147;-69
2023/08/30 06:41:51;;;;;;;0.00;0.00;;;17.60;99.90;;;;;;7387258;19;20185;-69
2023/08/30 06:44:22;;;;;;;0.00;0.00;;;17.40;99.90;;;;;;7388523;19;20153;-69
2023/08/30 06:46:51;;;;;;;0.00;0.00;;;;;;;;;;7390775;19;20145;-70
2023/08/30 06:49:22;;;;;;;0.10;0.10;;;18.10;99.90;;;;;;7386666;19;20160;-69
2023/08/30 06:51:51;;;;;;;0.00;0.00;;;;;;;;;;7388106;19;20265;-69
2023/08/30 06:54:20;;;;;;;0.00;0.00;;;;;;;;;;7387493;19;20160;-69
2023/08/30 06:57:00;;;;;;;0.00;0.00;;;18.50;99.90;;;;;;7389751;19;20236;-69
2023/08/30 06:59:29;;;;;;;0.00;0.00;;;18.70;99.90;;;;;;7387728;19;20148;-69
2023/08/30 07:01:58;;;;;;;0.00;0.00;;;18.90;99.90;;;;;;7387530;19;20161;-69
2023/08/30 07:04:30;;;;;;;0.00;0.00;;;19.00;99.90;;;;;;7387180;19;20153;-69
2023/08/30 07:06:58;;;;;;;0.00;0.00;;;19.20;99.90;;;;;;7388569;19;20148;-68
2023/08/30 07:09:28;;;;;;;0.00;0.00;;;;;;;;;;7384514;19;20163;-69
2023/08/30 07:11:57;;;;;;;0.00;0.00;;;;;;;;;;7384535;19;20184;-69
2023/08/30 07:14:26;;;;;;;0.00;0.00;;;;;;;;;;7388652;19;20141;-69
2023/08/30 07:16:55;;;;;;;0.00;0.00;;;;;;;;;;7388636;19;20148;-69
2023/08/30 07:19:24;;;;;;;0.00;0.00;;;;;;;;;;7387421;19;20167;-69
2023/08/30 07:21:56;;;;;;;0.00;0.00;;;;;;;;;;7385527;19;20746;-69
2023/08/30 07:24:25;;;;;;;0.00;0.00;;;;;;;;;;7386880;19;20148;-69
2023/08/30 07:26:54;;;;;;;0.00;0.00;;;;;;;;;;7386278;19;20175;-69
2023/08/30 07:29:23;;;;;;;0.00;0.00;;;;;;;;;;7384646;19;20182;-69
2023/08/30 07:31:53;;;;;;;0.00;0.00;;;;;;;;;;7387539;19;20149;-70
2023/08/30 07:34:22;;;;;;;0.00;0.00;;;;;;;;;;7386727;19;20137;-69
2023/08/30 07:36:51;;;;;;;0.00;0.00;;;;;;;;;;7388811;19;20160;-67
2023/08/30 07:39:23;;;;;;;0.00;0.00;;;;;;;;;;7384807;19;20160;-67
2023/08/30 07:41:52;;;;;;;0.00;0.00;;;;;;;;;;7386910;19;20157;-68
2023/08/30 07:44:22;;;;;;;0.00;0.00;;;;;;;;;;7387923;19;20212;-68
2023/08/30 07:46:51;;;;;;;0.00;0.00;;;;;;;;;;7385897;19;20156;-67
2023/08/30 07:49:20;;;;;;;0.00;0.00;;;;;;;;;;7384402;19;20181;-67
2023/08/30 07:51:49;;;;;;;0.00;0.00;;;;;;;;;;7386740;19;20628;-68
2023/08/30 07:54:18;;;;;;;0.00;0.00;;;;;;;;;;7384953;19;20160;-68
2023/08/30 07:56:49;;;;;;;0.00;0.00;;;;;;;;;;7386589;19;20156;-69
2023/08/30 07:59:18;;;;;;;0.00;0.00;;;;;;;;;;7387579;19;20168;-68
2023/08/30 08:01:47;;;;;;;0.00;0.00;;;;;;;;;;7384671;19;20180;-68
2023/08/30 08:04:16;;;;;;;0.00;0.00;;;;;;;;;;7385731;19;20153;-67
2023/08/30 08:06:45;;;;;;;0.00;0.00;;;;;;;;;;7387436;19;20137;-67
2023/08/30 08:09:15;;;;;;;0.00;0.00;;;;;;;;;;7384637;19;20196;-69
2023/08/30 08:11:44;;;;;;;0.00;0.00;;;;;;;;;;7386048;19;20153;-68
2023/08/30 08:14:16;;;;;;;0.00;0.00;;;;;;;;;;7385414;19;20152;-68
2023/08/30 08:16:45;;;;;;;0.00;0.00;;;;;;;;;;7385412;19;20183;-69
2023/08/30 08:19:15;;;;;;;0.00;0.00;;;;;;;;;;7386837;19;20137;-67
2023/08/30 08:21:44;;;;;;;0.00;0.00;;;;;;;;;;7386287;19;20156;-69
2023/08/30 08:24:13;;;;;;;0.00;0.00;;;;;;;;;;7387708;19;20192;-69
2023/08/30 08:26:42;;;;;;;0.00;0.00;;;;;;;;;;7384276;19;20244;-68
2023/08/30 08:29:11;;;;;;;0.00;0.00;;;;;;;;;;7386309;19;20144;-69
2023/08/30 08:31:43;;;;;;;0.00;0.00;;;;;;;;;;7383242;19;20180;-69
2023/08/30 08:34:13;;;;;;;0.00;0.00;;;;;;;;;;7383310;19;20140;-68
2023/08/30 08:36:42;;;;;;;0.00;0.00;;;;;;;;;;7386041;19;20144;-68
2023/08/30 08:39:13;;;;;;;0.00;0.00;;;;;;;;;;7384872;19;20137;-68
2023/08/30 08:41:43;;;;;;;0.00;0.00;;;;;;;;;;7384453;19;20170;-69
2023/08/30 08:44:13;;;;;;;0.00;0.00;;;;;;;;;;7384260;19;20175;-68
2023/08/30 08:46:45;;;;;;;0.00;0.00;;;;;;;;;;7384813;19;20149;-68
2023/08/30 08:49:15;;;;;;;0.00;0.00;;;;;;;;;;7385263;19;20139;-68
2023/08/30 08:51:44;;;;;;;0.00;0.00;;;;;;;;;;7382791;19;20207;-68
2023/08/30 08:54:14;;;;;;;0.00;0.00;;;;;;;;;;7385269;19;20132;-69
2023/08/30 08:56:43;;;;;;;0.00;0.00;;;;;;;;;;7385997;19;20128;-68
2023/08/30 08:59:12;;;;;;;0.00;0.00;;;;;;;;;;7385146;19;20129;-68
2023/08/30 09:01:44;;;;;;;0.00;0.00;;;;;;;;;;7384276;19;20157;-68
2023/08/30 09:04:14;;;;;;;0.00;0.00;;;;;;;;;;7383826;19;20628;-69
2023/08/30 09:06:43;;;;;;;0.00;0.00;;;;;;;;;;7384441;19;20153;-68
2023/08/30 09:09:12;;;;;;;0.00;0.00;;;;;;;;;;7382826;19;20224;-68
2023/08/30 09:11:41;;;;;;;0.00;0.00;;;;;;;;;;7383618;19;20153;-68
2023/08/30 09:14:12;;;;;;;0.00;0.00;;;;;;;;;;7382529;19;20152;-68
2023/08/30 09:16:40;;;;;;;0.00;0.00;;;;;;;;;;7383781;19;20534;-68
2023/08/30 09:19:12;;;;;;;0.00;0.00;;;;;;;;;;7383090;19;20156;-68
2023/08/30 09:21:41;;;;;;;0.00;0.00;;;;;;;;;;7381394;19;20203;-68
2023/08/30 09:24:10;;;;;;;0.00;0.00;;;;;;;;;;7382097;19;20156;-68
2023/08/30 09:26:39;;;;;;;0.00;0.00;;;;;;;;;;7382449;19;20179;-68
2023/08/30 09:29:09;;;;;;;0.00;0.00;;;23.70;99.90;;;;;;7382290;19;20163;-67
2023/08/30 09:31:39;;;;;;;0.00;0.00;;;23.60;99.90;;;;;;7382473;19;20151;-68
2023/08/30 09:34:08;;;;;;;0.00;0.00;;;24.20;99.90;;;;;;7383051;19;20136;-68
2023/08/30 09:36:41;;;;;;;0.00;0.00;;;24.20;99.90;;;;;;7383353;19;20152;-68
2023/08/30 09:39:10;;;;;;;0.00;0.00;;;;;;;;;;7383869;19;20156;-67
2023/08/30 09:41:40;;;;;;;0.00;0.00;;;;;;;;;;7380705;19;20191;-68
2023/08/30 09:44:13;;;;;;;0.00;0.00;;;;;;;;;;7382989;19;20129;-68
2023/08/30 09:46:45;;;;;;;0.00;0.00;;;;;;;;;;7380865;19;20275;-68
2023/08/30 09:49:15;;;;;;;0.00;0.00;;;;;;;;;;7383580;19;20143;-67
2023/08/30 09:51:47;;;;;;;0.00;0.00;;;;;;;;;;7380757;19;20259;-68
2023/08/30 09:54:18;;;;;;;0.00;0.00;;;;;;;;;;7383340;19;20214;-68
2023/08/30 09:56:47;;;;;;;0.00;0.00;;;;;;;;;;7381339;19;20156;-69
2023/08/30 09:59:17;;;;;;;0.00;0.00;;;;;;;;;;7382207;19;20164;-68
2023/08/30 10:01:47;;;;;;;0.00;0.00;;;;;;;;;;7380040;19;20551;-68
2023/08/30 10:04:17;;;;;;;0.00;0.00;;;;;;;;;;7382772;19;20129;-68
2023/08/30 10:06:48;;;;;;;0.00;0.00;;;;;;;;;;7383437;19;20214;-67
2023/08/30 10:09:19;;;;;;;0.00;0.00;;;;;;;;;;7383012;19;20163;-68
2023/08/30 10:11:48;;;;;;;0.00;0.00;;;;;;;;;;7379787;19;20181;-68
2023/08/30 10:14:17;;;;;;;0.00;0.00;;;;;;;;;;7383076;19;20133;-68
2023/08/30 10:16:47;;;;;;;0.00;0.00;;;;;;;;;;7381384;19;20156;-68
2023/08/30 10:19:18;;;;;;;0.00;0.00;;;;;;;;;;7383552;19;20129;-68
2023/08/30 10:21:51;;;;;;;0.00;0.00;;;;;;;;;;7382087;19;20152;-68
2023/08/30 10:24:22;;;;;;;0.00;0.00;;;;;;;;;;7381288;19;20184;-67
2023/08/30 10:26:49;;;;;;;0.00;0.00;;;;;;;;;;7381128;19;20152;-67
2023/08/30 10:29:20;;;;;;;0.00;0.00;;;;;;;;;;7381941;19;20162;-68
2023/08/30 10:31:49;;;;;;;0.00;0.00;;;;;;;;;;7381925;19;20145;-67
2023/08/30 10:34:19;;;;;;;0.00;0.00;;;;;;;;;;7381042;19;20149;-68
2023/08/30 10:37:00;;;;;;;0.00;0.00;;;;;;;;;;7380986;19;20156;-67
2023/08/30 10:39:36;;;;;;;0.00;0.00;;;;;;;;;;7380950;19;20177;-67
2023/08/30 10:42:10;;;;;;;0.00;0.00;;;;;;;;;;7379721;19;20180;-67
2023/08/30 10:44:50;;;;;;;0.00;0.00;;;;;;;;;;7380087;19;20152;-67
2023/08/30 10:47:23;;;;;;;0.00;0.00;;;;;;;;;;7381240;19;20149;-68
2023/08/30 10:49:52;;;;;;;0.00;0.00;;;;;;;;;;7379206;19;20149;-68
2023/08/30 10:52:24;;;;;;;0.00;0.00;;;;;;;;;;7378610;19;20177;-67
2023/08/30 10:54:53;;;;;;;0.00;0.00;;;;;;;;;;7379727;19;20152;-67
2023/08/30 10:57:23;;;;;;;0.00;0.00;;;;;;;;;;7381898;19;20145;-68
2023/08/30 11:00:07;;;;;;;0.00;0.00;;;;;;;;;;7380305;19;20164;-68
2023/08/30 11:02:37;;;;;;;0.00;0.00;;;;;;;;;;7382020;19;20176;-67
2023/08/30 11:05:06;;;;;;;0.00;0.00;;;;;;;;;;7389803;19;20137;-67
2023/08/30 11:07:38;;;;;;;0.00;0.00;;;;;;;;;;7388430;19;20163;-68
2023/08/30 11:10:08;;;;;;;0.00;0.00;;;;;;;;;;7385877;19;20224;-67
2023/08/30 11:12:37;;;;;;;0.00;0.00;;;;;;;;;;7386735;19;20228;-68
2023/08/30 11:15:07;;;;;;;0.00;0.00;;;;;;;;;;7387853;19;20212;-68
2023/08/30 11:17:36;;;;;;;0.00;0.00;;;;;;;;;;7390341;19;20132;-68
2023/08/30 11:20:09;;;;;;;0.00;0.00;;;;;;;;;;7389041;19;20150;-68
2023/08/30 11:22:43;;;;;;;0.00;0.00;;;;;;;;;;7387286;19;20281;-68
2023/08/30 11:25:13;;;;;;;0.00;0.00;;;;;;;;;;7387120;19;20156;-68
2023/08/30 11:27:42;;;;;;;0.00;0.00;;;;;;;;;;7386521;19;20172;-68
2023/08/30 11:30:12;;;;;;;0.00;0.00;;;;;;;;;;7384814;19;20149;-68
2023/08/30 11:32:42;;;;;;;0.00;0.00;;;;;;;;;;7383673;19;20184;-68
2023/08/30 11:35:12;;;;;;;0.00;0.00;;;;;;;;;;7388474;19;20128;-68
2023/08/30 11:37:43;;;;;;;0.00;0.00;;;;;;;;;;7388302;19;20145;-68
2023/08/30 11:40:14;;;;;;;0.00;0.00;;;;;;;;;;7387002;19;20153;-68
2023/08/30 11:42:43;;;;;;;0.00;0.00;;;;;;;;;;7383489;19;20176;-68
2023/08/30 11:45:12;;;;;;;0.00;0.00;;;;;;;;;;7386596;19;20156;-68
2023/08/30 11:47:41;;;;;;;0.00;0.00;;;;;;;;;;7387667;19;20153;-68
2023/08/30 11:50:12;;;;;;;0.00;0.00;;;;;;;;;;7385793;19;20152;-68
2023/08/30 11:52:44;;;;;;;0.00;0.00;;;;;;;;;;7386040;19;20160;-68
2023/08/30 11:55:13;;;;;;;0.00;0.00;;;;;;;;;;7388495;19;20150;-69
2023/08/30 11:57:42;;;;;;;0.00;0.00;;;;;;;;;;7388162;19;20137;-68
2023/08/30 12:00:12;;;;;;;0.00;0.00;;;;;;;;;;7386531;19;20153;-68
2023/08/30 12:02:41;;;;;;;0.00;0.00;;;;;;;;;;7386169;19;20157;-68
2023/08/30 12:05:14;;;;;;;0.00;0.00;;;;;;;;;;7387729;19;20144;-68
2023/08/30 12:07:45;;;;;;;0.00;0.00;;;;;;;;;;7387055;19;20179;-69
2023/08/30 12:10:14;;;;;;;0.00;0.00;;;;;;;;;;7386339;19;20161;-68
2023/08/30 12:12:48;;;;;;;0.00;0.00;;;;;;;;;;7385176;19;20203;-68
2023/08/30 12:15:18;;;;;;;0.00;0.00;;;;;;;;;;7388077;19;20152;-68
2023/08/30 12:17:47;;;;;;;0.00;0.00;;;;;;;;;;7386532;19;20168;-68
2023/08/30 12:20:20;;;;;;;0.00;0.00;;;;;;;;;;7385994;19;20152;-68
2023/08/30 12:22:52;;;;;;;0.00;0.00;;;;;;;;;;7383785;19;20152;-67
2023/08/30 12:25:22;;;;;;;0.00;0.00;;;;;;;;;;7387392;19;20133;-68
2023/08/30 12:27:52;;;;;;;0.00;0.00;;;;;;;;;;7385964;19;20148;-68
2023/08/30 12:30:22;;;;;;;0.00;0.00;;;;;;;;;;7383517;19;20231;-68
2023/08/30 12:32:51;;;;;;;0.00;0.00;;;;;;;;;;7382552;19;20148;-68
2023/08/30 12:35:20;;;;;;;0.00;0.00;;;;;;;;;;7384825;19;20156;-69
2023/08/30 12:37:51;;;;;;;0.00;0.00;;;;;;;;;;7386290;19;20132;-68
2023/08/30 12:40:20;;;;;;;0.00;0.00;;;;;;;;;;7386725;19;20141;-68
2023/08/30 12:42:49;;;;;;;0.00;0.00;;;;;;;;;;7381573;19;20181;-69
2023/08/30 12:45:19;;;;;;;0.00;0.00;;;;;;;;;;7386411;19;20137;-68
2023/08/30 12:47:48;;;;;;;0.00;0.00;;;;;;;;;;7386492;19;20133;-68
2023/08/30 12:50:17;;;;;;;0.00;0.00;;;;;;;;;;7385565;19;20137;-67
2023/08/30 12:52:46;;;;;;;0.00;0.00;;;;;;;;;;7383568;19;20149;-68
2023/08/30 12:55:19;;;;;;;0.00;0.00;;;;;;;;;;7386538;19;20216;-67
2023/08/30 12:57:48;;;;;;;0.00;0.00;;;;;;;;;;7383047;19;20160;-67
2023/08/30 13:00:18;;;;;;;0.00;0.00;;;;;;;;;;7384887;19;20136;-67
2023/08/30 13:02:47;;;;;;;0.00;0.00;;;;;;;;;;7381176;19;20180;-67
2023/08/30 13:05:16;;;;;;;0.00;0.00;;;;;;;;;;7383852;19;20208;-67
2023/08/30 13:07:45;;;;;;;0.00;0.00;;;;;;;;;;7383938;19;20160;-68
2023/08/30 13:10:14;;;;;;;0.00;0.00;;;;;;;;;;7384748;19;20137;-68
2023/08/30 13:12:46;;;;;;;0.00;0.00;;;;;;;;;;7383177;19;20161;-68
2023/08/30 13:15:15;;;;;;;0.00;0.00;;;;;;;;;;7385055;19;20658;-68
2023/08/30 13:17:44;;;;;;;0.00;0.00;;;;;;;;;;7384626;19;20144;-68
2023/08/30 13:20:13;;;;;;;0.00;0.00;;;;;;;;;;7384043;19;20173;-69
2023/08/30 13:22:42;;;;;;;0.00;0.00;;;;;;;;;;7382040;19;20176;-68
2023/08/30 13:25:12;;;;;;;0.00;0.00;;;;;;;;;;7381544;19;20149;-69
2023/08/30 13:27:41;;;;;;;0.00;0.00;;;;;;;;;;7383223;19;20164;-69
2023/08/30 13:30:12;;;;;;;0.00;0.00;;;;;;;;;;7381610;19;20165;-69
2023/08/30 13:32:42;;;;;;;0.00;0.00;;;;;;;;;;7382450;19;20171;-68
2023/08/30 13:35:11;;;;;;;0.00;0.00;;;;;;;;;;7384010;19;20139;-69
2023/08/30 13:37:41;;;;;;;0.00;0.00;;;;;;;;;;7383924;19;20211;-69
2023/08/30 13:40:11;;;;;;;0.00;0.00;;;;;;;;;;7384205;19;20616;-69
2023/08/30 13:42:40;;;;;;;0.00;0.00;;;;;;;;;;7380893;19;20576;-68
2023/08/30 13:45:10;;;;;;;0.00;0.00;;;;;;;;;;7382769;19;20250;-69
2023/08/30 13:47:41;;;;;;;0.00;0.00;;;;;;;;;;7382412;19;20166;-69
2023/08/30 13:50:11;;;;;;;0.00;0.00;;;;;;;;;;7381658;19;20156;-68
2023/08/30 13:52:40;;;;;;;0.00;0.00;;;;;;;;;;7381681;19;20207;-68
2023/08/30 13:55:10;;;;;;;0.00;0.00;;;;;;;;;;7382863;19;20673;-68
2023/08/30 13:57:39;;;;;;;0.00;0.00;;;;;;;;;;7383475;19;20164;-69
2023/08/30 14:00:09;;;;;;;0.00;0.00;;;;;;;;;;7383909;19;20141;-68
2023/08/30 14:02:41;;;;;;;0.00;0.00;;;;;;;;;;7381011;19;20720;-69
2023/08/30 14:05:11;;;;;;;0.00;0.00;;;;;;;;;;7383521;19;20224;-69
2023/08/30 14:07:40;;;;;;;0.00;0.00;;;;;;;;;;7383970;19;20579;-69
2023/08/30 14:10:11;;;;;;;0.00;0.00;;;;;;;;;;7381374;19;20241;-69
2023/08/30 14:12:40;;;;;;;0.00;0.00;;;;;;;;;;7382163;19;20161;-69
2023/08/30 14:15:09;;;;;;;0.00;0.00;;;;;;;;;;7381454;19;20164;-69
2023/08/30 14:17:38;;;;;;;0.00;0.00;;;;;;;;;;7383280;19;20668;-69
2023/08/30 14:20:11;;;;;;;0.00;0.00;;;;;;;;;;7381730;19;20137;-69
2023/08/30 14:22:40;;;;;;;0.00;0.00;;;;;;;;;;7379343;19;20187;-69
2023/08/30 14:25:10;;;;;;;0.00;0.00;;;;;;;;;;7381220;19;20141;-68
2023/08/30 14:27:39;;;;;;;0.00;0.00;;;;;;;;;;7383130;19;20137;-69
2023/08/30 14:30:08;;;;;;;0.00;0.00;;;;;;;;;;7382090;19;20133;-69
2023/08/30 14:32:37;;;;;;;0.00;0.00;;;;;;;;;;7380685;19;20170;-68
2023/08/30 14:35:06;;;;;;;0.00;0.00;;;;;;;;;;7379670;19;20153;-69
2023/08/30 14:37:39;;;;;;;0.00;0.00;;;;;;;;;;7386418;19;20160;-69
2023/08/30 14:40:09;;;;;;;0.00;0.00;;;;;;;;;;7387365;19;20148;-69
2023/08/30 14:42:38;;;;;;;0.00;0.00;;;;;;;;;;7388140;19;20176;-69
2023/08/30 14:45:07;;;;;;;0.00;0.00;;;;;;;;;;7390023;19;20148;-69
2023/08/30 14:47:36;;;;;;;0.00;0.00;;;;;;;;;;7388581;19;20156;-69
2023/08/30 14:50:05;;;;;;;0.00;0.00;;;;;;;;;;7387762;19;20187;-69